sensor_id;sensor_type;location;lat;lon;timestamp;P1;durP1;ratioP1;P2;durP2;ratioP2
36827;SDS011;22766;48.042;11.192;2024-01-15T00:00:34;8.43;;;2.63;;
36827;SDS011;22766;48.042;11.192;2024-01-15T00:03:01;4.78;;;2.08;;
36827;SDS011;22766;48.042;11.192;2024-01-15T00:05:27;3.92;;;2.58;;
36827;SDS011;22766;48.042;11.192;2024-01-15T00:07:54;4.53;;;2.08;;
36827;SDS011;22766;48.042;11.192;2024-01-15T00:10:21;5.80;;;2.33;;
36827;SDS011;22766;48.042;11.192;2024-01-15T00:12:48;5.43;;;2.55;;
36827;SDS011;22766;48.042;11.192;2024-01-15T00:15:15;5.55;;;2.40;;
36827;SDS011;22766;48.042;11.192;2024-01-15T00:17:41;5.38;;;2.40;;
36827;SDS011;22766;48.042;11.192;2024-01-15T00:20:09;4.85;;;2.10;;
36827;SDS011;22766;48.042;11.192;2024-01-15T00:22:36;3.90;;;2.03;;
36827;SDS011;22766;48.042;11.192;2024-01-15T00:25:03;5.22;;;2.33;;
36827;SDS011;22766;48.042;11.192;2024-01-15T00:27:30;3.33;;;1.95;;
36827;SDS011;22766;48.042;11.192;2024-01-15T00:29:57;6.55;;;2.70;;
36827;SDS011;22766;48.042;11.192;2024-01-15T00:32:24;4.50;;;2.22;;
36827;SDS011;22766;48.042;11.192;2024-01-15T00:34:51;3.83;;;1.92;;
36827;SDS011;22766;48.042;11.192;2024-01-15T00:37:18;5.50;;;2.40;;
36827;SDS011;22766;48.042;11.192;2024-01-15T00:39:45;4.13;;;2.03;;
36827;SDS011;22766;48.042;11.192;2024-01-15T00:42:12;4.95;;;2.20;;
36827;SDS011;22766;48.042;11.192;2024-01-15T00:44:42;8.45;;;3.08;;
36827;SDS011;22766;48.042;11.192;2024-01-15T00:47:09;6.05;;;2.25;;
36827;SDS011;22766;48.042;11.192;2024-01-15T00:49:36;7.22;;;2.80;;
36827;SDS011;22766;48.042;11.192;2024-01-15T00:52:08;5.13;;;2.50;;
36827;SDS011;22766;48.042;11.192;2024-01-15T00:54:35;6.40;;;2.53;;
36827;SDS011;22766;48.042;11.192;2024-01-15T00:57:02;5.75;;;2.60;;
36827;SDS011;22766;48.042;11.192;2024-01-15T00:59:29;6.28;;;2.78;;
36827;SDS011;22766;48.042;11.192;2024-01-15T01:01:56;8.90;;;3.25;;
36827;SDS011;22766;48.042;11.192;2024-01-15T01:04:23;9.77;;;3.35;;
36827;SDS011;22766;48.042;11.192;2024-01-15T01:06:50;7.35;;;3.17;;
36827;SDS011;22766;48.042;11.192;2024-01-15T01:09:17;9.52;;;3.83;;
36827;SDS011;22766;48.042;11.192;2024-01-15T01:11:44;9.65;;;3.50;;
36827;SDS011;22766;48.042;11.192;2024-01-15T01:14:11;7.97;;;3.15;;
36827;SDS011;22766;48.042;11.192;2024-01-15T01:16:37;12.98;;;4.10;;
36827;SDS011;22766;48.042;11.192;2024-01-15T01:19:06;9.10;;;3.92;;
36827;SDS011;22766;48.042;11.192;2024-01-15T01:21:34;8.25;;;3.95;;
36827;SDS011;22766;48.042;11.192;2024-01-15T01:24:01;7.05;;;3.78;;
36827;SDS011;22766;48.042;11.192;2024-01-15T01:26:27;7.90;;;3.88;;
36827;SDS011;22766;48.042;11.192;2024-01-15T01:28:54;11.02;;;4.57;;
36827;SDS011;22766;48.042;11.192;2024-01-15T01:31:22;9.35;;;3.92;;
36827;SDS011;22766;48.042;11.192;2024-01-15T01:33:50;10.88;;;4.10;;
36827;SDS011;22766;48.042;11.192;2024-01-15T01:36:17;9.20;;;4.28;;
36827;SDS011;22766;48.042;11.192;2024-01-15T01:38:44;10.13;;;4.80;;
36827;SDS011;22766;48.042;11.192;2024-01-15T01:41:11;10.65;;;5.15;;
36827;SDS011;22766;48.042;11.192;2024-01-15T01:43:38;9.65;;;4.30;;
36827;SDS011;22766;48.042;11.192;2024-01-15T01:46:05;9.48;;;4.60;;
36827;SDS011;22766;48.042;11.192;2024-01-15T01:48:31;11.30;;;4.47;;
36827;SDS011;22766;48.042;11.192;2024-01-15T01:50:59;8.88;;;4.32;;
36827;SDS011;22766;48.042;11.192;2024-01-15T01:53:28;10.05;;;4.75;;
36827;SDS011;22766;48.042;11.192;2024-01-15T01:55:58;7.82;;;3.80;;
36827;SDS011;22766;48.042;11.192;2024-01-15T01:58:25;13.02;;;4.05;;
36827;SDS011;22766;48.042;11.192;2024-01-15T02:00:52;15.10;;;5.40;;
36827;SDS011;22766;48.042;11.192;2024-01-15T02:03:20;11.60;;;4.90;;
36827;SDS011;22766;48.042;11.192;2024-01-15T02:05:47;12.40;;;5.60;;
36827;SDS011;22766;48.042;11.192;2024-01-15T02:08:16;15.73;;;5.80;;
36827;SDS011;22766;48.042;11.192;2024-01-15T02:10:43;10.90;;;4.68;;
36827;SDS011;22766;48.042;11.192;2024-01-15T02:13:10;11.43;;;4.82;;
36827;SDS011;22766;48.042;11.192;2024-01-15T02:15:37;10.07;;;4.43;;
36827;SDS011;22766;48.042;11.192;2024-01-15T02:18:04;7.65;;;4.63;;
36827;SDS011;22766;48.042;11.192;2024-01-15T02:20:33;8.60;;;4.28;;
36827;SDS011;22766;48.042;11.192;2024-01-15T02:25:43;7.03;;;4.55;;
36827;SDS011;22766;48.042;11.192;2024-01-15T02:28:14;11.00;;;4.07;;
36827;SDS011;22766;48.042;11.192;2024-01-15T02:30:43;10.68;;;4.97;;
36827;SDS011;22766;48.042;11.192;2024-01-15T02:33:11;10.02;;;4.38;;
36827;SDS011;22766;48.042;11.192;2024-01-15T02:35:39;10.85;;;4.78;;
36827;SDS011;22766;48.042;11.192;2024-01-15T02:38:06;7.28;;;3.63;;
36827;SDS011;22766;48.042;11.192;2024-01-15T02:40:34;10.52;;;4.28;;
36827;SDS011;22766;48.042;11.192;2024-01-15T02:43:01;8.00;;;4.20;;
36827;SDS011;22766;48.042;11.192;2024-01-15T02:45:28;10.40;;;4.60;;
36827;SDS011;22766;48.042;11.192;2024-01-15T02:47:55;10.07;;;3.65;;
36827;SDS011;22766;48.042;11.192;2024-01-15T02:50:22;9.18;;;4.28;;
36827;SDS011;22766;48.042;11.192;2024-01-15T02:52:49;6.82;;;4.05;;
36827;SDS011;22766;48.042;11.192;2024-01-15T02:55:16;8.57;;;4.15;;
36827;SDS011;22766;48.042;11.192;2024-01-15T02:57:42;6.78;;;3.45;;
36827;SDS011;22766;48.042;11.192;2024-01-15T03:00:10;8.20;;;3.67;;
36827;SDS011;22766;48.042;11.192;2024-01-15T03:02:38;9.43;;;4.03;;
36827;SDS011;22766;48.042;11.192;2024-01-15T03:05:10;14.20;;;5.35;;
36827;SDS011;22766;48.042;11.192;2024-01-15T03:07:37;6.90;;;3.55;;
36827;SDS011;22766;48.042;11.192;2024-01-15T03:10:05;9.27;;;4.40;;
36827;SDS011;22766;48.042;11.192;2024-01-15T03:12:32;7.35;;;3.78;;
36827;SDS011;22766;48.042;11.192;2024-01-15T03:14:59;9.25;;;3.65;;
36827;SDS011;22766;48.042;11.192;2024-01-15T03:17:26;8.68;;;3.85;;
36827;SDS011;22766;48.042;11.192;2024-01-15T03:19:53;8.38;;;3.78;;
36827;SDS011;22766;48.042;11.192;2024-01-15T03:22:20;8.95;;;3.88;;
36827;SDS011;22766;48.042;11.192;2024-01-15T03:24:47;9.77;;;4.00;;
36827;SDS011;22766;48.042;11.192;2024-01-15T03:27:14;6.75;;;3.35;;
36827;SDS011;22766;48.042;11.192;2024-01-15T03:29:41;6.97;;;3.58;;
36827;SDS011;22766;48.042;11.192;2024-01-15T03:32:08;8.35;;;3.42;;
36827;SDS011;22766;48.042;11.192;2024-01-15T03:34:34;9.20;;;3.95;;
36827;SDS011;22766;48.042;11.192;2024-01-15T03:37:01;10.50;;;3.30;;
36827;SDS011;22766;48.042;11.192;2024-01-15T03:39:28;8.65;;;3.45;;
36827;SDS011;22766;48.042;11.192;2024-01-15T03:41:55;6.45;;;2.95;;
36827;SDS011;22766;48.042;11.192;2024-01-15T03:44:24;6.38;;;3.38;;
36827;SDS011;22766;48.042;11.192;2024-01-15T03:46:51;6.90;;;3.72;;
36827;SDS011;22766;48.042;11.192;2024-01-15T03:49:18;6.18;;;2.63;;
36827;SDS011;22766;48.042;11.192;2024-01-15T03:51:45;7.93;;;3.35;;
36827;SDS011;22766;48.042;11.192;2024-01-15T03:54:12;9.10;;;3.85;;
36827;SDS011;22766;48.042;11.192;2024-01-15T03:56:39;6.85;;;3.13;;
36827;SDS011;22766;48.042;11.192;2024-01-15T03:59:05;7.82;;;3.30;;
36827;SDS011;22766;48.042;11.192;2024-01-15T04:01:32;7.50;;;3.10;;
36827;SDS011;22766;48.042;11.192;2024-01-15T04:03:59;6.38;;;2.85;;
36827;SDS011;22766;48.042;11.192;2024-01-15T04:06:26;7.60;;;3.72;;
36827;SDS011;22766;48.042;11.192;2024-01-15T04:08:53;7.35;;;3.17;;
36827;SDS011;22766;48.042;11.192;2024-01-15T04:11:20;6.22;;;2.78;;
36827;SDS011;22766;48.042;11.192;2024-01-15T04:13:46;7.72;;;3.08;;
36827;SDS011;22766;48.042;11.192;2024-01-15T04:16:13;5.68;;;2.40;;
36827;SDS011;22766;48.042;11.192;2024-01-15T04:18:40;7.43;;;2.60;;
36827;SDS011;22766;48.042;11.192;2024-01-15T04:21:07;7.00;;;2.80;;
36827;SDS011;22766;48.042;11.192;2024-01-15T04:23:34;4.63;;;2.67;;
36827;SDS011;22766;48.042;11.192;2024-01-15T04:26:01;7.15;;;2.65;;
36827;SDS011;22766;48.042;11.192;2024-01-15T04:28:27;6.55;;;3.22;;
36827;SDS011;22766;48.042;11.192;2024-01-15T04:30:54;6.85;;;2.42;;
36827;SDS011;22766;48.042;11.192;2024-01-15T04:33:21;5.85;;;3.15;;
36827;SDS011;22766;48.042;11.192;2024-01-15T04:35:49;6.43;;;2.42;;
36827;SDS011;22766;48.042;11.192;2024-01-15T04:38:16;6.60;;;3.10;;
36827;SDS011;22766;48.042;11.192;2024-01-15T04:40:42;5.82;;;2.47;;
36827;SDS011;22766;48.042;11.192;2024-01-15T04:43:09;6.65;;;3.05;;
36827;SDS011;22766;48.042;11.192;2024-01-15T04:45:36;6.40;;;2.83;;
36827;SDS011;22766;48.042;11.192;2024-01-15T04:48:03;9.93;;;2.40;;
36827;SDS011;22766;48.042;11.192;2024-01-15T04:50:30;5.00;;;2.65;;
36827;SDS011;22766;48.042;11.192;2024-01-15T04:52:57;6.20;;;2.70;;
36827;SDS011;22766;48.042;11.192;2024-01-15T04:55:24;3.75;;;2.50;;
36827;SDS011;22766;48.042;11.192;2024-01-15T04:57:51;7.05;;;3.20;;
36827;SDS011;22766;48.042;11.192;2024-01-15T05:00:18;7.35;;;2.97;;
36827;SDS011;22766;48.042;11.192;2024-01-15T05:02:44;6.20;;;2.42;;
36827;SDS011;22766;48.042;11.192;2024-01-15T05:05:11;9.25;;;2.92;;
36827;SDS011;22766;48.042;11.192;2024-01-15T05:07:38;6.13;;;3.38;;
36827;SDS011;22766;48.042;11.192;2024-01-15T05:10:05;8.18;;;3.35;;
36827;SDS011;22766;48.042;11.192;2024-01-15T05:12:34;9.13;;;2.80;;
36827;SDS011;22766;48.042;11.192;2024-01-15T05:15:01;3.60;;;2.10;;
36827;SDS011;22766;48.042;11.192;2024-01-15T05:17:28;5.75;;;2.72;;
36827;SDS011;22766;48.042;11.192;2024-01-15T05:19:55;3.88;;;2.30;;
36827;SDS011;22766;48.042;11.192;2024-01-15T05:22:22;5.65;;;2.50;;
36827;SDS011;22766;48.042;11.192;2024-01-15T05:24:51;4.28;;;2.00;;
36827;SDS011;22766;48.042;11.192;2024-01-15T05:27:18;6.15;;;2.70;;
36827;SDS011;22766;48.042;11.192;2024-01-15T05:29:45;6.75;;;2.85;;
36827;SDS011;22766;48.042;11.192;2024-01-15T05:32:12;6.07;;;2.70;;
36827;SDS011;22766;48.042;11.192;2024-01-15T05:34:39;4.72;;;2.55;;
36827;SDS011;22766;48.042;11.192;2024-01-15T05:37:06;7.93;;;3.28;;
36827;SDS011;22766;48.042;11.192;2024-01-15T05:39:33;7.88;;;3.05;;
36827;SDS011;22766;48.042;11.192;2024-01-15T05:42:00;5.32;;;2.55;;
36827;SDS011;22766;48.042;11.192;2024-01-15T05:44:27;6.10;;;3.25;;
36827;SDS011;22766;48.042;11.192;2024-01-15T05:46:53;3.83;;;2.08;;
36827;SDS011;22766;48.042;11.192;2024-01-15T05:49:20;4.90;;;2.38;;
36827;SDS011;22766;48.042;11.192;2024-01-15T05:51:48;5.88;;;2.70;;
36827;SDS011;22766;48.042;11.192;2024-01-15T05:54:15;6.60;;;2.92;;
36827;SDS011;22766;48.042;11.192;2024-01-15T05:56:42;6.57;;;2.97;;
36827;SDS011;22766;48.042;11.192;2024-01-15T05:59:09;5.70;;;2.92;;
36827;SDS011;22766;48.042;11.192;2024-01-15T06:01:41;13.32;;;4.30;;
36827;SDS011;22766;48.042;11.192;2024-01-15T06:04:08;13.40;;;5.03;;
36827;SDS011;22766;48.042;11.192;2024-01-15T06:06:35;4.47;;;2.58;;
36827;SDS011;22766;48.042;11.192;2024-01-15T06:09:02;7.57;;;3.42;;
36827;SDS011;22766;48.042;11.192;2024-01-15T06:11:31;6.80;;;2.88;;
36827;SDS011;22766;48.042;11.192;2024-01-15T06:13:59;6.18;;;2.78;;
36827;SDS011;22766;48.042;11.192;2024-01-15T06:16:28;5.20;;;2.60;;
36827;SDS011;22766;48.042;11.192;2024-01-15T06:18:55;6.80;;;2.90;;
36827;SDS011;22766;48.042;11.192;2024-01-15T06:21:22;5.05;;;3.08;;
36827;SDS011;22766;48.042;11.192;2024-01-15T06:23:49;7.88;;;3.38;;
36827;SDS011;22766;48.042;11.192;2024-01-15T06:26:16;7.07;;;3.67;;
36827;SDS011;22766;48.042;11.192;2024-01-15T06:28:43;8.52;;;3.65;;
36827;SDS011;22766;48.042;11.192;2024-01-15T06:31:09;7.53;;;3.17;;
36827;SDS011;22766;48.042;11.192;2024-01-15T06:33:37;6.40;;;3.13;;
36827;SDS011;22766;48.042;11.192;2024-01-15T06:36:05;10.05;;;3.28;;
36827;SDS011;22766;48.042;11.192;2024-01-15T06:38:32;6.78;;;2.50;;
36827;SDS011;22766;48.042;11.192;2024-01-15T06:40:59;7.50;;;2.90;;
36827;SDS011;22766;48.042;11.192;2024-01-15T06:43:26;5.97;;;3.10;;
36827;SDS011;22766;48.042;11.192;2024-01-15T06:45:53;7.35;;;3.08;;
36827;SDS011;22766;48.042;11.192;2024-01-15T06:48:20;7.82;;;3.03;;
36827;SDS011;22766;48.042;11.192;2024-01-15T06:50:47;7.10;;;3.10;;
36827;SDS011;22766;48.042;11.192;2024-01-15T06:53:14;9.18;;;3.17;;
36827;SDS011;22766;48.042;11.192;2024-01-15T06:55:41;4.88;;;3.05;;
36827;SDS011;22766;48.042;11.192;2024-01-15T06:58:08;5.07;;;2.53;;
36827;SDS011;22766;48.042;11.192;2024-01-15T07:00:35;5.22;;;2.90;;
36827;SDS011;22766;48.042;11.192;2024-01-15T07:03:02;6.18;;;3.17;;
36827;SDS011;22766;48.042;11.192;2024-01-15T07:05:29;7.85;;;3.00;;
36827;SDS011;22766;48.042;11.192;2024-01-15T07:07:57;6.50;;;3.42;;
36827;SDS011;22766;48.042;11.192;2024-01-15T07:10:24;5.80;;;3.35;;
36827;SDS011;22766;48.042;11.192;2024-01-15T07:12:51;4.00;;;2.67;;
36827;SDS011;22766;48.042;11.192;2024-01-15T07:15:17;5.65;;;2.63;;
36827;SDS011;22766;48.042;11.192;2024-01-15T07:17:44;5.13;;;2.75;;
36827;SDS011;22766;48.042;11.192;2024-01-15T07:20:11;5.38;;;2.72;;
36827;SDS011;22766;48.042;11.192;2024-01-15T07:22:38;5.90;;;2.80;;
36827;SDS011;22766;48.042;11.192;2024-01-15T07:25:05;7.60;;;2.80;;
36827;SDS011;22766;48.042;11.192;2024-01-15T07:27:33;4.95;;;2.05;;
36827;SDS011;22766;48.042;11.192;2024-01-15T07:30:00;4.60;;;2.47;;
36827;SDS011;22766;48.042;11.192;2024-01-15T07:32:30;4.22;;;2.70;;
36827;SDS011;22766;48.042;11.192;2024-01-15T07:34:58;6.50;;;2.67;;
36827;SDS011;22766;48.042;11.192;2024-01-15T07:37:26;8.45;;;2.90;;
36827;SDS011;22766;48.042;11.192;2024-01-15T07:39:52;5.80;;;2.55;;
36827;SDS011;22766;48.042;11.192;2024-01-15T07:42:19;5.15;;;2.47;;
36827;SDS011;22766;48.042;11.192;2024-01-15T07:44:46;5.47;;;2.58;;
36827;SDS011;22766;48.042;11.192;2024-01-15T07:47:13;6.72;;;2.60;;
36827;SDS011;22766;48.042;11.192;2024-01-15T07:49:40;7.43;;;2.70;;
36827;SDS011;22766;48.042;11.192;2024-01-15T07:52:07;5.53;;;2.38;;
36827;SDS011;22766;48.042;11.192;2024-01-15T07:54:34;4.57;;;2.47;;
36827;SDS011;22766;48.042;11.192;2024-01-15T07:57:01;5.13;;;2.53;;
36827;SDS011;22766;48.042;11.192;2024-01-15T07:59:31;7.25;;;2.60;;
36827;SDS011;22766;48.042;11.192;2024-01-15T08:01:58;7.80;;;2.42;;
36827;SDS011;22766;48.042;11.192;2024-01-15T08:04:26;6.03;;;2.28;;
36827;SDS011;22766;48.042;11.192;2024-01-15T08:06:53;6.47;;;2.60;;
36827;SDS011;22766;48.042;11.192;2024-01-15T08:09:20;5.28;;;2.20;;
36827;SDS011;22766;48.042;11.192;2024-01-15T08:11:47;5.95;;;2.47;;
36827;SDS011;22766;48.042;11.192;2024-01-15T08:14:15;5.72;;;2.92;;
36827;SDS011;22766;48.042;11.192;2024-01-15T08:16:42;6.93;;;2.75;;
36827;SDS011;22766;48.042;11.192;2024-01-15T08:19:10;6.50;;;2.53;;
36827;SDS011;22766;48.042;11.192;2024-01-15T08:21:37;4.88;;;2.22;;
36827;SDS011;22766;48.042;11.192;2024-01-15T08:24:04;4.82;;;2.47;;
36827;SDS011;22766;48.042;11.192;2024-01-15T08:26:31;6.00;;;2.60;;
36827;SDS011;22766;48.042;11.192;2024-01-15T08:28:59;7.07;;;3.08;;
36827;SDS011;22766;48.042;11.192;2024-01-15T08:31:26;4.82;;;2.45;;
36827;SDS011;22766;48.042;11.192;2024-01-15T08:33:53;4.40;;;2.33;;
36827;SDS011;22766;48.042;11.192;2024-01-15T08:36:21;6.10;;;2.78;;
36827;SDS011;22766;48.042;11.192;2024-01-15T08:38:51;4.63;;;2.33;;
36827;SDS011;22766;48.042;11.192;2024-01-15T08:41:18;5.32;;;2.33;;
36827;SDS011;22766;48.042;11.192;2024-01-15T08:43:45;4.15;;;2.50;;
36827;SDS011;22766;48.042;11.192;2024-01-15T08:46:12;5.90;;;2.78;;
36827;SDS011;22766;48.042;11.192;2024-01-15T08:48:38;5.47;;;2.78;;
36827;SDS011;22766;48.042;11.192;2024-01-15T08:51:06;7.53;;;2.72;;
36827;SDS011;22766;48.042;11.192;2024-01-15T08:53:35;4.93;;;2.55;;
36827;SDS011;22766;48.042;11.192;2024-01-15T08:56:01;5.55;;;2.67;;
36827;SDS011;22766;48.042;11.192;2024-01-15T08:58:28;4.82;;;2.55;;
36827;SDS011;22766;48.042;11.192;2024-01-15T09:00:55;5.82;;;2.63;;
36827;SDS011;22766;48.042;11.192;2024-01-15T09:03:22;5.90;;;2.83;;
36827;SDS011;22766;48.042;11.192;2024-01-15T09:05:49;3.58;;;1.95;;
36827;SDS011;22766;48.042;11.192;2024-01-15T09:08:16;6.07;;;2.75;;
36827;SDS011;22766;48.042;11.192;2024-01-15T09:10:43;3.25;;;1.73;;
36827;SDS011;22766;48.042;11.192;2024-01-15T09:13:10;4.78;;;2.05;;
36827;SDS011;22766;48.042;11.192;2024-01-15T09:15:36;5.22;;;2.13;;
36827;SDS011;22766;48.042;11.192;2024-01-15T09:18:03;7.18;;;2.60;;
36827;SDS011;22766;48.042;11.192;2024-01-15T09:20:34;4.47;;;2.08;;
36827;SDS011;22766;48.042;11.192;2024-01-15T09:23:01;3.90;;;1.70;;
36827;SDS011;22766;48.042;11.192;2024-01-15T09:25:28;5.28;;;2.35;;
36827;SDS011;22766;48.042;11.192;2024-01-15T09:27:55;5.15;;;2.30;;
36827;SDS011;22766;48.042;11.192;2024-01-15T09:30:21;4.25;;;1.92;;
36827;SDS011;22766;48.042;11.192;2024-01-15T09:32:48;4.70;;;1.60;;
36827;SDS011;22766;48.042;11.192;2024-01-15T09:35:15;3.60;;;2.15;;
36827;SDS011;22766;48.042;11.192;2024-01-15T09:37:42;3.80;;;2.13;;
36827;SDS011;22766;48.042;11.192;2024-01-15T09:40:14;4.50;;;2.17;;
36827;SDS011;22766;48.042;11.192;2024-01-15T09:42:41;5.53;;;1.90;;
36827;SDS011;22766;48.042;11.192;2024-01-15T09:45:09;4.40;;;1.83;;
36827;SDS011;22766;48.042;11.192;2024-01-15T09:47:36;4.15;;;2.00;;
36827;SDS011;22766;48.042;11.192;2024-01-15T09:50:07;10.07;;;2.00;;
36827;SDS011;22766;48.042;11.192;2024-01-15T09:52:35;4.70;;;1.77;;
36827;SDS011;22766;48.042;11.192;2024-01-15T09:55:03;3.45;;;1.75;;
36827;SDS011;22766;48.042;11.192;2024-01-15T09:57:32;6.07;;;1.80;;
36827;SDS011;22766;48.042;11.192;2024-01-15T09:59:59;4.38;;;1.90;;
36827;SDS011;22766;48.042;11.192;2024-01-15T10:02:31;4.35;;;1.65;;
36827;SDS011;22766;48.042;11.192;2024-01-15T10:04:57;2.85;;;1.50;;
36827;SDS011;22766;48.042;11.192;2024-01-15T10:07:25;3.05;;;1.67;;
36827;SDS011;22766;48.042;11.192;2024-01-15T10:09:53;3.88;;;1.60;;
36827;SDS011;22766;48.042;11.192;2024-01-15T10:12:21;4.78;;;1.92;;
36827;SDS011;22766;48.042;11.192;2024-01-15T10:14:48;2.67;;;1.73;;
36827;SDS011;22766;48.042;11.192;2024-01-15T10:17:16;3.30;;;1.50;;
36827;SDS011;22766;48.042;11.192;2024-01-15T10:19:47;4.15;;;2.25;;
36827;SDS011;22766;48.042;11.192;2024-01-15T10:22:16;3.05;;;1.40;;
36827;SDS011;22766;48.042;11.192;2024-01-15T10:24:45;5.88;;;1.90;;
36827;SDS011;22766;48.042;11.192;2024-01-15T10:27:15;3.72;;;1.75;;
36827;SDS011;22766;48.042;11.192;2024-01-15T10:29:42;3.60;;;1.30;;
36827;SDS011;22766;48.042;11.192;2024-01-15T10:32:10;5.30;;;1.95;;
36827;SDS011;22766;48.042;11.192;2024-01-15T10:34:38;3.63;;;1.58;;
36827;SDS011;22766;48.042;11.192;2024-01-15T10:37:10;3.78;;;1.92;;
36827;SDS011;22766;48.042;11.192;2024-01-15T10:39:37;2.75;;;1.60;;
36827;SDS011;22766;48.042;11.192;2024-01-15T10:42:05;4.75;;;2.03;;
36827;SDS011;22766;48.042;11.192;2024-01-15T10:44:33;2.42;;;1.63;;
36827;SDS011;22766;48.042;11.192;2024-01-15T10:47:01;3.00;;;1.27;;
36827;SDS011;22766;48.042;11.192;2024-01-15T10:49:28;4.82;;;1.63;;
36827;SDS011;22766;48.042;11.192;2024-01-15T10:52:00;3.50;;;1.60;;
36827;SDS011;22766;48.042;11.192;2024-01-15T10:54:29;2.88;;;1.70;;
36827;SDS011;22766;48.042;11.192;2024-01-15T10:56:56;3.53;;;1.52;;
36827;SDS011;22766;48.042;11.192;2024-01-15T10:59:23;2.55;;;1.52;;
36827;SDS011;22766;48.042;11.192;2024-01-15T11:01:51;3.80;;;1.80;;
36827;SDS011;22766;48.042;11.192;2024-01-15T11:04:23;1.92;;;1.02;;
36827;SDS011;22766;48.042;11.192;2024-01-15T11:06:54;3.58;;;1.35;;
36827;SDS011;22766;48.042;11.192;2024-01-15T11:09:23;2.25;;;1.30;;
36827;SDS011;22766;48.042;11.192;2024-01-15T11:12:09;2.72;;;1.35;;
36827;SDS011;22766;48.042;11.192;2024-01-15T11:17:04;1.73;;;1.23;;
36827;SDS011;22766;48.042;11.192;2024-01-15T11:22:08;2.58;;;1.75;;
36827;SDS011;22766;48.042;11.192;2024-01-15T11:24:37;1.45;;;1.27;;
36827;SDS011;22766;48.042;11.192;2024-01-15T11:27:08;1.13;;;0.98;;
36827;SDS011;22766;48.042;11.192;2024-01-15T11:29:36;1.42;;;1.13;;
36827;SDS011;22766;48.042;11.192;2024-01-15T11:32:07;3.30;;;1.42;;
36827;SDS011;22766;48.042;11.192;2024-01-15T11:40:24;3.28;;;1.05;;
36827;SDS011;22766;48.042;11.192;2024-01-15T11:43:07;3.45;;;1.20;;
36827;SDS011;22766;48.042;11.192;2024-01-15T11:45:36;1.40;;;0.85;;
36827;SDS011;22766;48.042;11.192;2024-01-15T11:53:13;4.25;;;1.33;;
36827;SDS011;22766;48.042;11.192;2024-01-15T11:55:44;1.23;;;0.90;;
36827;SDS011;22766;48.042;11.192;2024-01-15T11:58:12;2.05;;;1.08;;
36827;SDS011;22766;48.042;11.192;2024-01-15T12:00:40;1.45;;;1.17;;
36827;SDS011;22766;48.042;11.192;2024-01-15T12:03:09;1.67;;;1.08;;
36827;SDS011;22766;48.042;11.192;2024-01-15T12:05:36;3.55;;;1.23;;
36827;SDS011;22766;48.042;11.192;2024-01-15T12:08:08;3.47;;;1.27;;
36827;SDS011;22766;48.042;11.192;2024-01-15T12:10:39;2.15;;;1.17;;
36827;SDS011;22766;48.042;11.192;2024-01-15T12:13:11;2.65;;;1.30;;
36827;SDS011;22766;48.042;11.192;2024-01-15T12:15:43;2.13;;;1.30;;
36827;SDS011;22766;48.042;11.192;2024-01-15T12:18:12;3.80;;;1.60;;
36827;SDS011;22766;48.042;11.192;2024-01-15T12:20:40;4.13;;;1.80;;
36827;SDS011;22766;48.042;11.192;2024-01-15T12:23:09;2.65;;;1.33;;
36827;SDS011;22766;48.042;11.192;2024-01-15T12:25:36;4.40;;;1.55;;
36827;SDS011;22766;48.042;11.192;2024-01-15T12:28:04;2.75;;;1.55;;
36827;SDS011;22766;48.042;11.192;2024-01-15T12:30:32;3.35;;;1.52;;
36827;SDS011;22766;48.042;11.192;2024-01-15T12:33:07;2.75;;;1.40;;
36827;SDS011;22766;48.042;11.192;2024-01-15T12:35:36;2.35;;;1.35;;
36827;SDS011;22766;48.042;11.192;2024-01-15T12:38:03;2.33;;;1.63;;
36827;SDS011;22766;48.042;11.192;2024-01-15T12:40:31;4.35;;;1.90;;
36827;SDS011;22766;48.042;11.192;2024-01-15T12:43:00;4.75;;;1.75;;
36827;SDS011;22766;48.042;11.192;2024-01-15T12:45:27;3.55;;;1.48;;
36827;SDS011;22766;48.042;11.192;2024-01-15T12:47:54;2.83;;;1.40;;
36827;SDS011;22766;48.042;11.192;2024-01-15T12:50:24;2.55;;;1.48;;
36827;SDS011;22766;48.042;11.192;2024-01-15T12:52:51;3.15;;;1.50;;
36827;SDS011;22766;48.042;11.192;2024-01-15T12:55:18;4.15;;;1.77;;
36827;SDS011;22766;48.042;11.192;2024-01-15T12:57:45;4.00;;;1.63;;
36827;SDS011;22766;48.042;11.192;2024-01-15T13:00:12;4.05;;;1.90;;
36827;SDS011;22766;48.042;11.192;2024-01-15T13:02:42;4.20;;;1.77;;
36827;SDS011;22766;48.042;11.192;2024-01-15T13:05:10;4.13;;;1.45;;
36827;SDS011;22766;48.042;11.192;2024-01-15T13:07:39;3.35;;;1.20;;
36827;SDS011;22766;48.042;11.192;2024-01-15T13:10:06;2.40;;;1.10;;
36827;SDS011;22766;48.042;11.192;2024-01-15T13:12:36;2.22;;;1.30;;
36827;SDS011;22766;48.042;11.192;2024-01-15T13:15:06;4.00;;;1.23;;
36827;SDS011;22766;48.042;11.192;2024-01-15T13:17:41;3.05;;;1.40;;
36827;SDS011;22766;48.042;11.192;2024-01-15T13:20:09;3.25;;;1.50;;
36827;SDS011;22766;48.042;11.192;2024-01-15T13:22:38;3.95;;;1.55;;
36827;SDS011;22766;48.042;11.192;2024-01-15T13:25:06;2.15;;;1.08;;
36827;SDS011;22766;48.042;11.192;2024-01-15T13:27:34;2.33;;;1.30;;
36827;SDS011;22766;48.042;11.192;2024-01-15T13:30:02;1.92;;;1.10;;
36827;SDS011;22766;48.042;11.192;2024-01-15T13:32:30;2.47;;;1.00;;
36827;SDS011;22766;48.042;11.192;2024-01-15T13:34:57;2.72;;;1.05;;
36827;SDS011;22766;48.042;11.192;2024-01-15T13:37:24;4.72;;;1.23;;
36827;SDS011;22766;48.042;11.192;2024-01-15T13:39:51;3.85;;;1.20;;
36827;SDS011;22766;48.042;11.192;2024-01-15T13:42:19;3.13;;;1.55;;
36827;SDS011;22766;48.042;11.192;2024-01-15T13:44:50;5.32;;;1.50;;
36827;SDS011;22766;48.042;11.192;2024-01-15T13:47:17;2.22;;;1.23;;
36827;SDS011;22766;48.042;11.192;2024-01-15T13:49:44;3.65;;;1.75;;
36827;SDS011;22766;48.042;11.192;2024-01-15T13:52:11;3.75;;;1.60;;
36827;SDS011;22766;48.042;11.192;2024-01-15T13:54:39;3.90;;;1.75;;
36827;SDS011;22766;48.042;11.192;2024-01-15T13:57:18;2.30;;;1.40;;
36827;SDS011;22766;48.042;11.192;2024-01-15T13:59:47;3.40;;;1.60;;
36827;SDS011;22766;48.042;11.192;2024-01-15T14:02:15;5.72;;;1.58;;
36827;SDS011;22766;48.042;11.192;2024-01-15T14:04:47;2.35;;;1.50;;
36827;SDS011;22766;48.042;11.192;2024-01-15T14:07:14;2.97;;;1.60;;
36827;SDS011;22766;48.042;11.192;2024-01-15T14:09:42;1.33;;;1.00;;
36827;SDS011;22766;48.042;11.192;2024-01-15T14:12:09;3.92;;;1.48;;
36827;SDS011;22766;48.042;11.192;2024-01-15T14:14:35;2.72;;;1.33;;
36827;SDS011;22766;48.042;11.192;2024-01-15T14:17:02;2.67;;;1.48;;
36827;SDS011;22766;48.042;11.192;2024-01-15T14:19:30;3.63;;;1.25;;
36827;SDS011;22766;48.042;11.192;2024-01-15T14:21:57;3.80;;;1.70;;
36827;SDS011;22766;48.042;11.192;2024-01-15T14:24:24;4.65;;;1.95;;
36827;SDS011;22766;48.042;11.192;2024-01-15T14:26:50;2.55;;;1.20;;
36827;SDS011;22766;48.042;11.192;2024-01-15T14:29:17;2.08;;;1.45;;
36827;SDS011;22766;48.042;11.192;2024-01-15T14:31:47;6.03;;;1.33;;
36827;SDS011;22766;48.042;11.192;2024-01-15T14:34:14;2.42;;;1.45;;
36827;SDS011;22766;48.042;11.192;2024-01-15T14:36:42;2.42;;;1.40;;
36827;SDS011;22766;48.042;11.192;2024-01-15T14:39:10;2.95;;;1.20;;
36827;SDS011;22766;48.042;11.192;2024-01-15T14:41:36;1.77;;;1.30;;
36827;SDS011;22766;48.042;11.192;2024-01-15T14:44:03;3.70;;;1.23;;
36827;SDS011;22766;48.042;11.192;2024-01-15T14:46:30;3.60;;;1.48;;
36827;SDS011;22766;48.042;11.192;2024-01-15T14:48:57;3.63;;;1.52;;
36827;SDS011;22766;48.042;11.192;2024-01-15T14:51:27;5.40;;;1.73;;
36827;SDS011;22766;48.042;11.192;2024-01-15T14:53:54;2.05;;;1.40;;